Time;durP1;ratioP1;P1;durP2;ratioP2;P2;SDS_P1;SDS_P2;PMS_P1;PMS_P2;Temp;Humidity;BMP_temperature;BMP_pressure;BME280_temperature;BME280_humidity;BME280_pressure;Samples;Min_cycle;Max_cycle;Signal;HPM_P1;HPM_P2
2022/06/13 00:00:20;;;;;;;8.40;4.90;;;13.80;99.90;;;;;;5042851;28;20069;-28
2022/06/13 00:02:46;;;;;;;10.85;5.13;;;13.80;99.90;;;;;;5043335;28;20041;-28
2022/06/13 00:05:13;;;;;;;9.73;5.30;;;13.80;99.90;;;;;;5040588;28;20045;-28
2022/06/13 00:07:38;;;;;;;9.15;4.88;;;13.70;99.90;;;;;;5042113;28;20410;-28
2022/06/13 00:10:05;;;;;;;8.73;5.57;;;13.70;99.90;;;;;;5046195;28;20040;-28
2022/06/13 00:12:32;;;;;;;8.15;5.10;;;13.60;99.90;;;;;;5044585;28;20069;-28
2022/06/13 00:14:57;;;;;;;10.15;6.53;;;13.60;99.90;;;;;;5051473;28;20480;-28
2022/06/13 00:17:23;;;;;;;7.28;5.53;;;13.50;99.90;;;;;;5031222;28;20045;-28
2022/06/13 00:19:49;;;;;;;8.48;5.50;;;13.50;99.90;;;;;;5034026;28;20400;-28
2022/06/13 00:22:15;;;;;;;9.30;5.03;;;13.50;99.90;;;;;;5048583;28;20041;-28
2022/06/13 00:24:40;;;;;;;9.07;4.85;;;13.50;99.90;;;;;;5045505;28;20060;-28
2022/06/13 00:27:06;;;;;;;10.13;5.20;;;13.50;99.90;;;;;;5046829;28;20046;-28
2022/06/13 00:29:32;;;;;;;12.30;5.05;;;13.50;99.90;;;;;;5027886;28;20400;-28
2022/06/13 00:31:58;;;;;;;8.10;5.38;;;13.60;99.90;;;;;;5047442;28;20556;-28
2022/06/13 00:34:23;;;;;;;12.77;5.53;;;13.60;99.90;;;;;;5052099;28;20119;-27
2022/06/13 00:36:49;;;;;;;9.13;5.47;;;13.60;99.90;;;;;;5052847;28;20126;-27
2022/06/13 00:39:15;;;;;;;10.50;5.35;;;13.70;99.90;;;;;;5045131;28;20103;-27
2022/06/13 00:41:42;;;;;;;11.63;5.25;;;13.70;99.90;;;;;;5046108;28;20575;-27
2022/06/13 00:44:21;;;;;;;10.93;5.55;;;13.70;99.90;;;;;;5052372;28;20147;-27
2022/06/13 00:46:48;;;;;;;8.20;5.15;;;13.70;99.90;;;;;;5048649;28;20040;-26
2022/06/13 00:49:20;;;;;;;10.27;5.22;;;13.70;99.90;;;;;;5051332;28;20124;-26
2022/06/13 00:51:50;;;;;;;11.60;5.72;;;13.70;99.90;;;;;;5046452;28;20037;-26
2022/06/13 00:54:19;;;;;;;10.90;5.55;;;13.80;99.90;;;;;;5043966;28;20495;-26
2022/06/13 00:56:47;;;;;;;8.80;5.18;;;13.80;99.90;;;;;;5034427;28;20436;-26
2022/06/13 00:59:18;;;;;;;10.18;5.57;;;13.70;99.90;;;;;;5048576;28;20572;-26
2022/06/13 01:01:44;;;;;;;9.90;6.00;;;13.70;99.90;;;;;;5046189;28;20484;-26
2022/06/13 01:04:10;;;;;;;10.43;6.35;;;13.70;99.90;;;;;;5049702;28;20094;-26
2022/06/13 01:06:42;;;;;;;11.82;6.22;;;13.70;99.90;;;;;;5052999;28;20068;-26
2022/06/13 01:09:11;;;;;;;11.48;5.82;;;13.70;99.90;;;;;;5044800;28;20095;-26
2022/06/13 01:11:47;;;;;;;10.45;5.78;;;13.70;99.90;;;;;;5052855;28;20392;-27
2022/06/13 01:14:20;;;;;;;9.60;5.60;;;13.70;99.90;;;;;;5051236;28;20037;-26
2022/06/13 01:17:04;;;;;;;;;;;13.80;99.90;;;;;;5043254;28;20033;-26
2022/06/13 01:19:33;;;;;;;10.80;5.97;;;13.80;99.90;;;;;;5052455;28;19917;-26
2022/06/13 01:22:17;;;;;;;13.35;6.13;;;13.70;99.90;;;;;;5012778;28;20048;-27
2022/06/13 01:25:10;;;;;;;10.98;6.07;;;13.80;99.90;;;;;;5045843;28;20128;-27
2022/06/13 01:27:42;;;;;;;14.75;6.10;;;13.70;99.90;;;;;;5044907;28;20055;-26
2022/06/13 01:30:26;;;;;;;9.80;6.20;;;13.70;99.90;;;;;;5045887;28;20030;-26
2022/06/13 01:33:11;;;;;;;10.02;6.65;;;13.70;99.90;;;;;;5049528;28;20037;-26
2022/06/13 01:35:48;;;;;;;10.30;6.25;;;13.80;99.90;;;;;;5051484;28;20072;-26
2022/06/13 01:38:23;;;;;;;9.68;6.30;;;13.70;99.90;;;;;;5047673;28;20044;-26
2022/06/13 01:41:02;;;;;;;12.15;6.65;;;13.70;99.90;;;;;;5049556;28;20175;-26
2022/06/13 01:44:05;;;;;;;12.00;7.15;;;13.70;99.90;;;;;;5039426;28;20494;-26
2022/06/13 01:46:43;;;;;;;12.20;7.25;;;13.70;99.90;;;;;;5052061;28;20048;-27
2022/06/13 01:49:49;;;;;;;13.75;7.53;;;13.70;99.90;;;;;;5048980;28;20121;-27
2022/06/13 01:52:40;;;;;;;13.15;6.97;;;13.70;99.90;;;;;;5048064;28;20104;-27
2022/06/13 01:55:21;;;;;;;9.02;6.88;;;13.60;99.90;;;;;;5036683;28;20099;-27
2022/06/13 01:57:52;;;;;;;14.73;7.07;;;13.60;99.90;;;;;;5043262;28;20029;-27
2022/06/13 02:00:25;;;;;;;11.30;7.18;;;13.60;99.90;;;;;;5044485;28;20507;-26
2022/06/13 02:03:00;;;;;;;15.85;7.53;;;13.60;99.90;;;;;;5017899;28;20326;-26
2022/06/13 02:05:46;;;;;;;11.27;7.75;;;13.60;99.90;;;;;;5046428;28;20083;-27
2022/06/13 02:08:23;;;;;;;12.07;6.88;;;13.50;99.90;;;;;;5043520;28;20396;-26
2022/06/13 02:11:18;;;;;;;12.55;7.28;;;13.50;99.90;;;;;;5043044;28;20035;-26
2022/06/13 02:13:57;;;;;;;13.07;6.15;;;13.60;99.90;;;;;;5031434;28;20248;-26
2022/06/13 02:16:33;;;;;;;11.23;6.35;;;13.60;99.90;;;;;;5044296;28;20033;-26
2022/06/13 02:19:38;;;;;;;12.82;7.20;;;13.50;99.90;;;;;;5041987;28;20186;-26
2022/06/13 02:22:24;;;;;;;14.77;7.00;;;13.60;99.90;;;;;;4970218;28;20457;-26
2022/06/13 02:25:21;;;;;;;15.00;7.43;;;13.60;99.90;;;;;;5042288;28;20052;-26
2022/06/13 02:28:04;;;;;;;11.52;6.80;;;13.60;99.90;;;;;;5039872;28;20056;-26
2022/06/13 02:30:37;;;;;;;14.80;7.95;;;13.60;99.90;;;;;;5047248;28;20507;-26
2022/06/13 02:33:10;;;;;;;12.52;7.50;;;13.60;99.90;;;;;;5041885;28;20041;-26
2022/06/13 02:35:48;;;;;;;9.52;6.43;;;13.60;99.90;;;;;;5036756;28;20040;-26
2022/06/13 02:38:21;;;;;;;11.07;6.18;;;13.60;99.90;;;;;;5045021;28;20488;-27
2022/06/13 02:40:56;;;;;;;12.90;7.32;;;13.60;99.90;;;;;;5049619;28;20055;-27
2022/06/13 02:43:32;;;;;;;10.50;6.55;;;13.60;99.90;;;;;;5049457;28;20067;-26
2022/06/13 02:46:13;;;;;;;11.10;7.07;;;13.50;99.90;;;;;;5046681;28;20037;-26
2022/06/13 02:48:46;;;;;;;13.02;7.55;;;13.50;99.90;;;;;;5035719;28;20484;-26
2022/06/13 02:51:27;;;;;;;12.30;7.55;;;13.50;99.90;;;;;;5050748;28;20037;-26
2022/06/13 02:53:53;;;;;;;14.32;7.50;;;13.50;99.90;;;;;;5050206;28;20048;-26
2022/06/13 02:56:33;;;;;;;11.13;6.95;;;13.40;99.90;;;;;;5048418;28;20087;-26
2022/06/13 02:59:11;;;;;;;12.85;7.47;;;13.40;99.90;;;;;;5029678;28;20124;-26
2022/06/13 03:01:47;;;;;;;13.75;7.45;;;13.30;99.90;;;;;;5033308;28;20048;-26
2022/06/13 03:04:25;;;;;;;10.65;7.32;;;13.30;99.90;;;;;;5042065;28;20036;-26
2022/06/13 03:07:00;;;;;;;10.20;7.10;;;13.30;99.90;;;;;;5039742;28;20591;-26
2022/06/13 03:09:40;;;;;;;12.70;7.00;;;13.30;99.90;;;;;;5039724;28;20033;-27
2022/06/13 03:12:19;;;;;;;10.95;7.25;;;13.30;99.90;;;;;;5039167;28;20111;-27
2022/06/13 03:15:05;;;;;;;11.32;7.28;;;13.30;99.90;;;;;;5043868;28;20041;-27
2022/06/13 03:17:36;;;;;;;13.55;6.97;;;13.30;99.90;;;;;;5049948;28;20037;-27
2022/06/13 03:20:16;;;;;;;13.98;7.72;;;13.30;99.90;;;;;;5042889;28;20052;-26
2022/06/13 03:23:00;;;;;;;15.30;8.07;;;13.20;99.90;;;;;;5035853;28;20080;-26
2022/06/13 03:25:41;;;;;;;14.10;7.50;;;13.20;99.90;;;;;;5041599;28;20179;-26
2022/06/13 03:28:52;;;;;;;14.10;7.43;;;13.20;99.90;;;;;;5040846;28;20117;-26
2022/06/13 03:31:28;;;;;;;14.88;8.23;;;13.20;99.90;;;;;;5037701;28;20029;-26
2022/06/13 03:33:59;;;;;;;11.55;7.85;;;13.20;99.90;;;;;;5043252;28;20348;-26
2022/06/13 03:36:36;;;;;;;16.73;8.38;;;13.20;99.90;;;;;;5042321;28;20113;-26
2022/06/13 03:39:22;;;;;;;14.38;7.55;;;13.20;99.90;;;;;;5045567;28;20053;-26
2022/06/13 03:41:53;;;;;;;11.38;7.07;;;13.20;99.90;;;;;;5043746;28;20095;-26
2022/06/13 03:44:43;;;;;;;13.35;8.55;;;13.20;99.90;;;;;;5051449;28;20120;-27
2022/06/13 03:47:19;;;;;;;14.57;8.07;;;13.30;99.90;;;;;;5035639;28;20128;-27
2022/06/13 03:50:14;;;;;;;13.63;7.97;;;13.30;99.90;;;;;;5042050;28;20087;-26
2022/06/13 03:52:45;;;;;;;14.60;8.40;;;13.30;99.90;;;;;;5033482;28;20095;-26
2022/06/13 03:55:19;;;;;;;16.80;8.48;;;13.30;99.90;;;;;;5048376;28;20037;-27
2022/06/13 03:57:48;;;;;;;;;;;13.30;99.90;;;;;;5055200;28;20033;-26
2022/06/13 04:00:19;;;;;;;16.45;8.35;;;13.30;99.90;;;;;;5049095;28;20350;-27
2022/06/13 04:02:45;;;;;;;13.35;8.68;;;13.40;99.90;;;;;;5049709;28;20076;-26
2022/06/13 04:05:27;;;;;;;13.70;8.68;;;13.30;99.90;;;;;;5049839;28;20103;-26
2022/06/13 04:07:53;;;;;;;12.43;8.27;;;13.40;99.90;;;;;;5044761;28;20037;-27
2022/06/13 04:10:23;;;;;;;16.85;8.88;;;13.40;99.90;;;;;;5052355;28;20450;-27
2022/06/13 04:13:05;;;;;;;14.05;8.45;;;13.40;99.90;;;;;;5032898;28;20037;-27
2022/06/13 04:15:56;;;;;;;15.68;9.23;;;13.40;99.90;;;;;;5048130;28;20038;-27
2022/06/13 04:18:46;;;;;;;14.15;8.88;;;13.50;99.90;;;;;;5022093;28;20051;-27
2022/06/13 04:22:06;;;;;;;13.93;8.20;;;13.50;99.90;;;;;;5042545;28;20111;-27
2022/06/13 04:25:00;;;;;;;19.00;9.18;;;13.60;99.90;;;;;;4946378;29;20051;-26
2022/06/13 04:27:35;;;;;;;10.93;7.97;;;13.60;99.90;;;;;;4943253;29;20054;-26
2022/06/13 04:30:14;;;;;;;14.35;8.48;;;13.70;99.90;;;;;;5030726;28;20055;-27
2022/06/13 04:33:01;;;;;;;17.85;8.77;;;13.70;99.90;;;;;;5049674;28;20094;-27
2022/06/13 04:35:29;;;;;;;14.32;8.95;;;13.80;99.90;;;;;;5041439;28;20091;-27
2022/06/13 04:37:57;;;;;;;15.23;9.02;;;13.80;99.90;;;;;;5043424;28;20037;-27
2022/06/13 04:40:26;;;;;;;16.70;9.65;;;13.90;99.90;;;;;;5039938;28;20056;-26
2022/06/13 04:42:54;;;;;;;15.38;9.63;;;13.90;99.90;;;;;;5048892;28;20032;-26
2022/06/13 04:45:43;;;;;;;14.63;9.32;;;13.90;99.90;;;;;;5049185;28;20044;-27
2022/06/13 04:48:10;;;;;;;15.25;9.10;;;14.00;99.90;;;;;;5031411;28;20551;-26
2022/06/13 04:50:43;;;;;;;15.50;9.18;;;14.00;99.90;;;;;;5049668;28;20499;-27
2022/06/13 04:53:34;;;;;;;13.00;8.90;;;14.10;99.90;;;;;;5027378;28;20037;-27
2022/06/13 04:56:00;;;;;;;16.95;8.73;;;14.20;99.90;;;;;;5026453;28;20120;-27
2022/06/13 04:58:25;;;;;;;17.08;9.07;;;14.20;99.90;;;;;;5046931;28;20112;-27
2022/06/13 05:01:15;;;;;;;13.10;8.32;;;14.30;99.90;;;;;;5046946;28;20070;-27
2022/06/13 05:03:42;;;;;;;15.00;8.85;;;14.40;99.90;;;;;;5051500;28;20033;-27
2022/06/13 05:06:37;;;;;;;15.07;8.20;;;14.50;99.90;;;;;;5050342;28;20144;-26
2022/06/13 05:09:05;;;;;;;;;;;14.50;99.90;;;;;;5042977;28;20137;-27
2022/06/13 05:11:51;;;;;;;15.82;8.73;;;14.40;99.90;;;;;;5047432;28;19994;-27
2022/06/13 05:14:26;;;;;;;14.88;8.55;;;14.40;99.90;;;;;;5047548;28;20105;-27
2022/06/13 05:17:26;;;;;;;14.75;7.90;;;14.40;99.90;;;;;;5043386;28;20126;-27
2022/06/13 05:20:11;;;;;;;15.60;8.50;;;14.40;99.90;;;;;;5033039;28;20413;-27
2022/06/13 05:22:54;;;;;;;15.98;8.55;;;14.40;99.90;;;;;;5040508;28;20056;-27
2022/06/13 05:25:35;;;;;;;12.85;7.85;;;14.40;99.90;;;;;;5046110;28;20052;-26
2022/06/13 05:28:00;;;;;;;12.18;7.18;;;14.50;99.90;;;;;;5048280;28;20033;-27
2022/06/13 05:30:27;;;;;;;10.07;7.00;;;14.60;99.90;;;;;;5048147;28;20032;-27
2022/06/13 05:32:54;;;;;;;10.80;7.30;;;14.70;99.90;;;;;;5050038;28;20045;-27
2022/06/13 05:35:22;;;;;;;10.23;5.75;;;14.90;99.90;;;;;;5046317;28;20042;-27
2022/06/13 05:37:50;;;;;;;11.85;6.35;;;15.00;99.90;;;;;;5049514;28;20033;-27
2022/06/13 05:40:19;;;;;;;10.38;5.75;;;15.20;99.90;;;;;;5040738;28;20033;-27
2022/06/13 05:42:46;;;;;;;8.40;5.32;;;15.30;99.90;;;;;;5044864;28;20041;-28
2022/06/13 05:45:15;;;;;;;8.20;5.18;;;15.50;99.90;;;;;;5035622;28;20464;-29
2022/06/13 05:47:42;;;;;;;9.77;4.95;;;15.50;99.90;;;;;;5036551;28;20432;-28
2022/06/13 05:50:16;;;;;;;8.40;4.57;;;15.50;99.90;;;;;;5042450;28;20029;-28
2022/06/13 05:52:42;;;;;;;9.40;4.78;;;15.50;99.90;;;;;;5042324;28;20037;-28
2022/06/13 05:55:09;;;;;;;9.02;4.40;;;15.40;99.90;;;;;;5041956;28;20033;-28
2022/06/13 05:57:36;;;;;;;8.20;4.32;;;15.50;99.90;;;;;;5044652;28;20029;-29
2022/06/13 06:00:02;;;;;;;7.32;3.85;;;15.40;99.90;;;;;;5041585;28;20046;-28
2022/06/13 06:02:28;;;;;;;7.57;3.90;;;15.40;99.90;;;;;;5047470;28;20451;-28
2022/06/13 06:04:53;;;;;;;10.10;3.85;;;15.30;99.90;;;;;;5043267;28;20045;-28
2022/06/13 06:07:19;;;;;;;8.10;4.47;;;15.30;99.90;;;;;;5046964;28;20048;-28
2022/06/13 06:09:45;;;;;;;8.90;4.05;;;15.40;99.90;;;;;;5041673;28;20488;-29
2022/06/13 06:12:10;;;;;;;10.68;3.60;;;15.50;99.90;;;;;;5030286;28;20033;-28
2022/06/13 06:14:36;;;;;;;7.32;3.53;;;15.70;99.90;;;;;;5042629;28;20136;-28
2022/06/13 06:17:02;;;;;;;7.85;3.65;;;15.80;99.90;;;;;;5021547;28;20169;-28
2022/06/13 06:19:28;;;;;;;4.22;2.63;;;16.10;99.90;;;;;;5031867;28;21291;-28
2022/06/13 06:21:54;;;;;;;8.95;3.30;;;16.30;99.90;;;;;;5038673;28;20032;-28
2022/06/13 06:24:19;;;;;;;6.22;2.92;;;16.30;99.90;;;;;;5036453;28;20045;-28
2022/06/13 06:26:45;;;;;;;7.63;3.30;;;16.30;99.90;;;;;;5037675;28;20030;-27
2022/06/13 06:29:11;;;;;;;9.07;3.05;;;16.40;99.90;;;;;;5044481;28;20503;-27
2022/06/13 06:31:37;;;;;;;5.38;2.65;;;16.50;99.90;;;;;;5034941;28;20055;-28
2022/06/13 06:34:03;;;;;;;4.80;2.47;;;16.70;99.90;;;;;;5040211;28;20116;-28
2022/06/13 06:36:29;;;;;;;6.10;2.83;;;16.80;99.90;;;;;;5023025;28;20033;-28
2022/06/13 06:38:56;;;;;;;5.82;2.40;;;16.80;99.90;;;;;;5035489;28;20053;-28
2022/06/13 06:41:22;;;;;;;5.97;2.55;;;16.90;99.90;;;;;;5039645;28;20059;-28
2022/06/13 06:43:47;;;;;;;7.97;2.40;;;16.90;99.90;;;;;;5017620;28;20485;-28
2022/06/13 06:46:14;;;;;;;6.88;2.60;;;16.80;99.90;;;;;;5039206;28;20041;-28
2022/06/13 06:48:40;;;;;;;5.70;2.30;;;16.80;99.90;;;;;;5037328;28;20060;-28
2022/06/13 06:51:12;;;;;;;3.83;2.30;;;16.80;99.90;;;;;;5034001;28;20072;-29
2022/06/13 07:01:52;;;;;;;4.57;2.60;;;17.40;99.90;;;;;;5051783;28;20178;-26
2022/06/13 07:04:18;;;;;;;7.38;2.85;;;17.30;99.90;;;;;;5033527;28;20037;-27
2022/06/13 07:06:44;;;;;;;6.50;2.30;;;17.20;99.90;;;;;;5051177;28;20135;-26
2022/06/13 07:09:10;;;;;;;4.63;2.42;;;17.00;99.90;;;;;;5051082;28;20175;-26
2022/06/13 07:11:54;;;;;;;9.63;2.50;;;16.70;99.90;;;;;;5050098;28;20087;-26
2022/06/13 07:14:33;;;;;;;9.77;3.25;;;16.50;99.90;;;;;;5067925;28;20040;-26
2022/06/13 07:17:00;;;;;;;6.47;2.72;;;16.20;99.90;;;;;;5051954;28;20052;-26
2022/06/13 07:19:27;;;;;;;9.52;2.90;;;15.80;99.90;;;;;;5020969;28;20071;-26
2022/06/13 07:21:53;;;;;;;8.68;3.33;;;15.60;99.90;;;;;;5037788;28;20037;-26
2022/06/13 07:24:22;;;;;;;8.40;2.78;;;15.40;99.90;;;;;;5055559;28;20048;-24
2022/06/13 07:26:49;;;;;;;7.68;3.10;;;15.10;99.90;;;;;;5055314;28;20041;-25
2022/06/13 07:29:18;;;;;;;4.07;1.52;;;14.80;99.90;;;;;;5047093;28;20547;-28
2022/06/13 07:31:48;;;;;;;1.30;0.80;;;14.60;99.90;;;;;;5042457;28;20033;-29
2022/06/13 07:34:17;;;;;;;2.13;1.10;;;14.50;99.90;;;;;;5047647;28;20324;-28
2022/06/13 07:36:43;;;;;;;1.98;0.98;;;14.30;99.90;;;;;;5043430;28;20037;-28
2022/06/13 07:39:09;;;;;;;2.92;1.10;;;14.20;99.90;;;;;;5044973;28;20045;-28
2022/06/13 07:41:37;;;;;;;2.90;1.02;;;14.20;99.90;;;;;;5045280;28;20029;-29
2022/06/13 07:44:04;;;;;;;2.40;1.20;;;14.20;99.90;;;;;;5039920;28;20060;-29
2022/06/13 07:46:31;;;;;;;2.33;1.58;;;14.30;99.90;;;;;;5044809;28;20484;-29
2022/06/13 07:48:57;;;;;;;2.47;1.30;;;14.30;99.90;;;;;;5040658;28;20041;-29
2022/06/13 07:51:24;;;;;;;1.55;0.90;;;14.40;99.90;;;;;;5048714;28;20065;-29
2022/06/13 07:53:50;;;;;;;2.10;1.25;;;14.60;99.90;;;;;;5044420;28;20093;-29
2022/06/13 07:56:23;;;;;;;2.33;1.20;;;14.90;99.90;;;;;;5026792;28;20038;-29
2022/06/13 07:58:50;;;;;;;3.22;1.20;;;15.10;99.90;;;;;;5044139;28;20045;-29
2022/06/13 08:01:17;;;;;;;1.88;1.35;;;15.40;99.90;;;;;;5045890;28;20211;-29
2022/06/13 08:03:43;;;;;;;3.60;1.27;;;15.60;99.90;;;;;;5043466;28;20044;-29
2022/06/13 08:06:10;;;;;;;2.13;1.40;;;15.80;99.90;;;;;;5046284;28;20493;-29
2022/06/13 08:08:36;;;;;;;1.70;1.30;;;15.90;99.90;;;;;;5043933;28;20041;-29
2022/06/13 08:11:06;;;;;;;2.75;1.65;;;16.20;99.90;;;;;;5037980;28;20056;-29
2022/06/13 08:13:33;;;;;;;2.25;1.52;;;16.40;99.90;;;;;;5043972;28;20482;-29
2022/06/13 08:15:59;;;;;;;3.97;1.60;;;16.60;99.90;;;;;;5049476;28;20037;-29
2022/06/13 08:18:25;;;;;;;3.13;1.67;;;16.90;99.90;;;;;;5048378;28;20573;-29
2022/06/13 08:20:51;;;;;;;4.10;1.70;;;17.20;99.90;;;;;;5045326;28;20556;-29
2022/06/13 08:23:20;;;;;;;3.40;1.55;;;17.30;99.90;;;;;;5013959;28;20180;-29
2022/06/13 08:25:48;;;;;;;4.45;1.98;;;17.30;99.90;;;;;;5042841;28;20129;-30
2022/06/13 08:28:14;;;;;;;2.83;1.80;;;17.20;99.90;;;;;;5042955;28;20053;-30
2022/06/13 08:30:49;;;;;;;6.10;2.05;;;17.30;99.90;;;;;;5039196;28;20080;-29
2022/06/13 08:33:15;;;;;;;5.13;2.10;;;17.60;99.90;;;;;;5044535;28;20103;-30
2022/06/13 08:35:41;;;;;;;6.93;2.03;;;17.90;99.90;;;;;;5041669;28;20041;-29
2022/06/13 08:38:07;;;;;;;5.72;2.15;;;18.40;99.90;;;;;;5025659;28;20435;-30
2022/06/13 08:41:01;;;;;;;4.97;1.65;;;18.80;99.90;;;;;;5037095;28;20033;-30
2022/06/13 08:43:42;;;;;;;4.75;1.70;;;18.90;99.90;;;;;;5048981;28;20074;-30
2022/06/13 08:46:27;;;;;;;4.35;1.52;;;18.60;99.90;;;;;;5042748;28;20053;-30
2022/06/13 08:49:09;;;;;;;5.80;1.67;;;18.20;99.90;;;;;;5042655;28;20069;-29
2022/06/13 08:51:43;;;;;;;3.90;1.92;;;18.10;99.90;;;;;;5037009;28;20037;-29
2022/06/13 08:54:10;;;;;;;3.08;1.42;;;18.40;99.90;;;;;;5043036;28;20036;-29
2022/06/13 08:56:36;;;;;;;4.93;1.70;;;18.80;99.90;;;;;;5038135;28;20132;-29
2022/06/13 08:59:22;;;;;;;4.70;1.88;;;19.00;99.90;;;;;;5048385;28;20504;-29
2022/06/13 09:01:56;;;;;;;6.07;1.75;;;19.20;99.90;;;;;;5043882;28;20048;-29
2022/06/13 09:04:30;;;;;;;7.68;1.77;;;19.10;99.90;;;;;;5044072;28;20045;-29
2022/06/13 09:07:15;;;;;;;5.43;1.65;;;19.40;99.90;;;;;;5047881;28;20052;-29
2022/06/13 09:09:55;;;;;;;4.40;1.45;;;19.90;99.90;;;;;;5045810;28;20052;-29
2022/06/13 09:12:56;;;;;;;3.33;1.30;;;20.30;99.90;;;;;;5043939;28;20389;-30
2022/06/13 09:15:39;;;;;;;3.85;1.52;;;20.20;99.90;;;;;;5046919;28;20060;-29
2022/06/13 09:18:18;;;;;;;;;;;20.40;99.90;;;;;;5041337;28;20042;-30
2022/06/13 09:21:05;;;;;;;3.55;1.63;;;20.60;99.70;;;;;;5040381;28;19917;-29
2022/06/13 09:23:49;;;;;;;4.10;1.50;;;20.40;99.90;;;;;;5039730;28;20045;-29
2022/06/13 09:26:19;;;;;;;4.40;1.60;;;19.90;99.80;;;;;;5043039;28;20036;-29
2022/06/13 09:28:52;;;;;;;7.07;1.70;;;19.60;99.90;;;;;;5037422;28;20120;-29
2022/06/13 09:34:49;;;;;;;5.32;1.50;;;19.40;99.90;;;;;;5041265;28;20256;-29
2022/06/13 09:37:40;;;;;;;4.45;1.35;;;19.90;99.90;;;;;;5044656;28;20060;-30
2022/06/13 09:40:07;;;;;;;2.22;1.30;;;19.90;98.90;;;;;;5041344;28;20037;-30
2022/06/13 09:42:51;;;;;;;2.72;1.17;;;20.40;99.90;;;;;;5040479;28;20037;-30
2022/06/13 09:45:36;;;;;;;3.20;1.20;;;20.90;97.10;;;;;;5042829;28;20111;-30
2022/06/13 09:48:11;;;;;;;2.15;1.30;;;21.20;88.00;;;;;;5033965;28;20269;-30
2022/06/13 09:50:45;;;;;;;2.38;1.10;;;21.20;89.30;;;;;;5034442;28;20510;-30
2022/06/13 09:53:45;;;;;;;5.72;1.20;;;21.30;79.80;;;;;;5041321;28;20045;-30
2022/06/13 09:56:26;;;;;;;3.67;1.13;;;21.40;79.20;;;;;;5038350;28;20059;-30
2022/06/13 09:59:15;;;;;;;4.15;1.10;;;21.50;78.90;;;;;;5042824;28;20041;-30
2022/06/13 10:01:44;;;;;;;2.28;1.00;;;21.00;65.90;;;;;;5039710;28;20059;-30
2022/06/13 10:04:18;;;;;;;2.67;1.30;;;20.20;80.20;;;;;;5037029;28;20030;-30
2022/06/13 10:06:58;;;;;;;5.40;0.90;;;19.50;79.10;;;;;;5041938;28;20060;-30
2022/06/13 10:09:44;;;;;;;3.45;1.20;;;19.00;83.70;;;;;;5040037;28;20120;-30
2022/06/13 10:12:25;;;;;;;5.35;1.42;;;18.60;87.50;;;;;;5039385;28;20065;-29
2022/06/13 10:15:11;;;;;;;4.25;1.25;;;18.30;91.70;;;;;;5042506;28;20041;-29
2022/06/13 10:18:11;;;;;;;3.47;1.77;;;18.40;92.40;;;;;;5041879;28;20072;-29
2022/06/13 10:21:15;;;;;;;5.50;1.33;;;19.00;93.70;;;;;;4959715;28;20043;-29
2022/06/13 10:23:52;;;;;;;2.45;1.15;;;19.80;90.50;;;;;;5006430;28;20045;-30
2022/06/13 10:26:27;;;;;;;4.38;1.25;;;20.30;88.00;;;;;;5045700;28;20041;-30
2022/06/13 10:29:10;;;;;;;4.35;1.25;;;20.70;84.60;;;;;;5042578;28;20056;-30
2022/06/13 10:31:54;;;;;;;;;;;21.00;75.70;;;;;;5043072;28;20072;-30
2022/06/13 10:34:26;;;;;;;;;;;21.30;63.90;;;;;;5026240;28;19963;-30
2022/06/13 10:37:16;;;;;;;2.90;1.00;;;21.60;65.10;;;;;;5039805;28;20015;-30
2022/06/13 10:39:43;;;;;;;2.90;0.90;;;21.80;62.20;;;;;;5042984;28;20040;-30
2022/06/13 10:42:14;;;;;;;6.53;1.38;;;21.90;70.30;;;;;;5042611;28;20041;-30
2022/06/13 10:44:41;;;;;;;2.88;1.05;;;22.30;63.00;;;;;;5042750;28;20112;-30
2022/06/13 10:47:38;;;;;;;2.47;1.00;;;22.50;63.80;;;;;;5043158;28;20033;-30
2022/06/13 10:50:31;;;;;;;3.42;1.10;;;22.40;58.20;;;;;;5036270;28;20041;-30
2022/06/13 10:53:06;;;;;;;5.28;1.50;;;22.00;63.20;;;;;;5023920;28;20040;-30
2022/06/13 10:55:37;;;;;;;3.72;1.30;;;21.50;64.10;;;;;;5035504;28;20037;-30
2022/06/13 10:58:13;;;;;;;3.28;1.30;;;21.40;63.30;;;;;;5035930;28;20048;-30
2022/06/13 11:00:41;;;;;;;4.57;1.30;;;21.70;61.80;;;;;;5037862;28;20041;-30
2022/06/13 11:03:15;;;;;;;5.05;1.17;;;22.10;63.70;;;;;;5046340;28;20037;-30
2022/06/13 11:05:54;;;;;;;4.53;1.52;;;21.60;58.80;;;;;;5025911;28;20115;-30
2022/06/13 11:08:20;;;;;;;3.45;1.30;;;21.00;57.30;;;;;;5040628;28;20037;-30
2022/06/13 11:11:01;;;;;;;2.50;0.85;;;21.10;59.80;;;;;;5019512;28;20116;-30
2022/06/13 11:13:32;;;;;;;4.35;1.25;;;21.30;57.60;;;;;;5027105;28;20033;-31
2022/06/13 11:25:00;;;;;;;3.00;1.42;;;22.10;55.40;;;;;;5038331;28;20146;-30
2022/06/13 11:27:40;;;;;;;3.47;1.55;;;22.40;55.50;;;;;;5044980;28;20102;-30
2022/06/13 11:30:28;;;;;;;5.35;1.50;;;22.10;54.60;;;;;;5042242;28;20092;-30
2022/06/13 11:33:09;;;;;;;3.47;1.10;;;21.70;56.20;;;;;;5028261;28;20044;-28
2022/06/13 11:35:43;;;;;;;4.80;1.40;;;21.10;60.40;;;;;;5034795;28;20496;-27
2022/06/13 11:38:28;;;;;;;3.67;1.40;;;20.70;63.90;;;;;;5034593;28;20519;-27
2022/06/13 11:41:06;;;;;;;5.00;1.60;;;20.20;70.00;;;;;;5035560;28;20492;-28
2022/06/13 11:43:35;;;;;;;3.67;1.55;;;19.80;73.70;;;;;;5034936;28;20048;-28
2022/06/13 11:46:05;;;;;;;4.10;1.30;;;19.70;77.70;;;;;;5052972;28;20087;-28
2022/06/13 11:48:31;;;;;;;4.53;1.60;;;19.50;79.00;;;;;;5035324;28;20044;-28
2022/06/13 11:51:01;;;;;;;6.53;1.75;;;19.40;80.70;;;;;;5033697;28;20037;-29
2022/06/13 11:53:37;;;;;;;5.90;1.52;;;19.20;83.70;;;;;;5027217;28;20357;-29
2022/06/13 11:56:12;;;;;;;7.25;1.65;;;19.30;83.50;;;;;;5042926;28;20041;-28
2022/06/13 11:58:45;;;;;;;4.72;1.48;;;19.50;84.00;;;;;;5041444;28;20037;-29
2022/06/13 12:01:14;;;;;;;4.60;1.50;;;20.10;85.50;;;;;;5046143;28;20492;-29
2022/06/13 12:03:46;;;;;;;4.00;1.40;;;20.50;81.00;;;;;;5039656;28;20049;-30
2022/06/13 12:06:16;;;;;;;5.30;1.77;;;20.90;74.80;;;;;;5043948;28;20073;-29
2022/06/13 12:08:58;;;;;;;5.90;1.77;;;20.80;73.70;;;;;;5048449;28;20408;-29
2022/06/13 12:11:24;;;;;;;3.15;1.30;;;21.00;76.20;;;;;;5045830;28;20032;-29
2022/06/13 12:13:52;;;;;;;4.13;1.50;;;20.80;69.30;;;;;;5050487;28;20029;-27
2022/06/13 12:16:41;;;;;;;5.60;1.60;;;20.90;71.40;;;;;;5056709;28;20037;-27
2022/06/13 12:19:26;;;;;;;6.40;1.77;;;21.40;70.70;;;;;;5027933;28;20037;-27
2022/06/13 12:22:30;;;;;;;5.68;1.80;;;21.30;67.30;;;;;;5031579;28;20087;-27
2022/06/13 12:24:56;;;;;;;6.85;1.75;;;20.90;68.80;;;;;;5038036;28;20040;-27
2022/06/13 12:27:43;;;;;;;5.25;1.77;;;20.50;71.10;;;;;;5055321;28;20055;-27
2022/06/13 12:30:31;;;;;;;7.95;1.65;;;20.20;74.50;;;;;;5038046;28;20056;-27
2022/06/13 12:33:20;;;;;;;4.47;1.77;;;19.90;78.50;;;;;;5051986;28;20134;-27
2022/06/13 12:36:01;;;;;;;4.10;1.52;;;20.10;80.70;;;;;;5038347;28;20134;-27
2022/06/13 12:38:47;;;;;;;7.00;1.67;;;20.30;79.80;;;;;;5056293;28;20121;-26
2022/06/13 12:41:30;;;;;;;6.05;2.08;;;20.20;75.90;;;;;;5030164;28;20068;-26
2022/06/13 12:44:07;;;;;;;6.93;1.98;;;20.00;74.10;;;;;;5055866;28;20110;-26
2022/06/13 12:47:19;;;;;;;7.25;1.60;;;19.90;77.60;;;;;;5031153;28;20540;-26
2022/06/13 12:50:21;;;;;;;6.88;1.77;;;19.70;75.90;;;;;;5017943;28;20045;-26
2022/06/13 12:52:56;;;;;;;5.47;1.88;;;20.10;91.60;;;;;;5036275;28;20046;-27
2022/06/13 12:55:38;;;;;;;3.38;1.40;;;20.50;77.80;;;;;;5038778;28;20033;-27
2022/06/13 12:58:35;;;;;;;4.70;1.40;;;20.50;77.10;;;;;;5056255;28;20037;-27
2022/06/13 13:01:22;;;;;;;3.40;1.27;;;20.50;75.20;;;;;;4986524;28;20184;-29
2022/06/13 13:04:00;;;;;;;5.75;2.00;;;20.10;67.20;;;;;;5023139;28;20033;-29
2022/06/13 13:06:40;;;;;;;4.70;1.83;;;20.00;67.30;;;;;;5023526;28;20532;-29
2022/06/13 13:09:30;;;;;;;4.35;1.38;;;20.20;71.30;;;;;;5025452;28;20468;-29
2022/06/13 13:12:17;;;;;;;4.45;1.60;;;20.40;66.80;;;;;;5038371;28;20531;-29
2022/06/13 13:14:54;;;;;;;6.03;1.30;;;20.40;62.80;;;;;;5043402;28;20426;-28
2022/06/13 13:17:23;;;;;;;7.60;1.70;;;20.30;65.50;;;;;;5041772;28;20037;-29
2022/06/13 13:20:12;;;;;;;4.35;1.67;;;20.00;65.40;;;;;;5014583;28;20037;-29
2022/06/13 13:23:14;;;;;;;5.65;1.40;;;19.90;65.90;;;;;;5039181;28;20040;-29
2022/06/13 13:25:43;;;;;;;4.55;1.77;;;19.60;67.10;;;;;;5041982;28;20044;-29
2022/06/13 13:28:34;;;;;;;3.60;1.58;;;19.60;69.90;;;;;;5030904;28;20412;-29
2022/06/13 13:31:25;;;;;;;6.25;1.70;;;19.50;73.70;;;;;;5036159;28;20046;-30
2022/06/13 13:34:07;;;;;;;7.35;2.10;;;19.40;76.20;;;;;;5039047;28;20060;-29
2022/06/13 13:36:53;;;;;;;9.10;1.73;;;19.40;72.10;;;;;;5042153;28;20448;-29
2022/06/13 13:39:48;;;;;;;6.50;1.70;;;19.20;73.30;;;;;;5005607;28;20049;-29
2022/06/13 13:42:25;;;;;;;5.80;1.67;;;19.30;79.90;;;;;;5037899;28;20056;-30
2022/06/13 13:45:16;;;;;;;7.82;1.85;;;19.40;79.50;;;;;;5026694;28;20045;-30
2022/06/13 13:47:48;;;;;;;5.35;1.58;;;19.40;73.30;;;;;;5043368;28;20066;-30
2022/06/13 13:50:18;;;;;;;6.32;1.50;;;19.60;72.20;;;;;;5011932;28;20049;-30